Lake, Wisconsin
Current Conditions -  °F | °C
As of 12:15 PM on Sunday 25 Jan 2015 (Local Time) from KPBH Reporting Station
Broken Clouds Broken Clouds  
Wind Chill: 17°   Ceiling: 12000
Heat Index: 17°   Visibility: 10mi
Dew Point:   Wind: 3mph
Humidity: 63%   Direction: 50°NE
Pressure: 30"   Gusts: NA
Location:  45.9599°N, 90.2362°W
Report Text: KPBH 251815Z AUTO 05003KT 10SM SCT025 BKN120 M08/M14 A3000 RMK AO2 T10821141
Loading
Personal Weather Stations






























Interactive Weather Map New forecast layout! Learn more

10-Day Weather Forecast

Advertisements
Track Severe Weather on mobile